Tiempo atmosférico en la estación meteorológica de Abenójar, Ciudad Real (718 m.)

Fecha
DESCASC
Temp. máxima en grados centígrados (hora)
DESCASC
Temp. mínima en grados centígrados (hora)
DESCASC
Temp. media en grados centígrados
DESCASC
Racha de viento máxima en m/sg (hora)
DESCASC
Velocidad máxima media en intervalos de 10 minutos(hora)
DESCASC
Precipitaciones diarias en mm
DESCASC
Precipitaciones de 00:00 a 06:00 en mm
DESCASC
Precipitaciones de 06:00 a 12:00 en mm
DESCASC
Precipitaciones de 12:00 a 18:00 en mm
DESCASC
Precipitaciones de 18:00 a 24:00 en mm
DESCASC
10-12-2017 10.8 (15:40) 8.8 (08:10) 9.8 13.89 (23:10) 8.06 (18:20) 0.2 0 0 0.2 0
09-12-2017 11.4 (13:30) 7.7 (00:00) 9.5 6.67 (06:30) 4.72 (06:30) 0 0 0 0 0
08-12-2017 13.2 (16:10) 0.9 (08:10) 7 7.78 (14:20) 5.28 (15:00) 0 0 0 0 0
07-12-2017 12.2 (16:10) -0.7 (-00:0) 5.7 3.61 (00:20) 2.78 (00:20) 0 0 0 0 0
06-12-2017 11.7 (15:00) -0.8 (-00:0) 5.4 5.56 (09:50) 3.89 (07:40) 0 0 0 0 0
05-12-2017 10.4 (15:10) -1 (-00:0) 4.7 8.61 (02:10) 6.11 (02:00) 0 0 0 0 0
04-12-2017 8.7 (16:00) -1.8 (-00:0) 3.4 10.83 (11:40) 7.22 (11:50) 0 0 0 0 0
03-12-2017 7.7 (15:00) -3.2 (-00:0) 2.2 8.06 (14:00) 4.72 (14:00) 0 0 0 0 0
02-12-2017 8.3 (14:40) -3.4 (-00:0) 2.5 8.89 (16:10) 5.28 (15:00) 0 0 0 0 0
01-12-2017 7.7 (15:00) -2.5 (-00:0) 2.6 9.72 (15:20) 6.39 (14:20) 0 0 0 0 0
30-11-2017 8.1 (14:50) 0.6 (00:00) 4.4 13.06 (12:20) 8.33 (10:50) 0 0 0 0 0
29-11-2017 12.5 (14:40) 5.4 (00:00) 9 7.22 (18:40) 4.72 (18:40) 9.4 7.4 1.6 0.4 0
28-11-2017 11.3 (15:20) 8.2 (00:00) 9.8 3.06 (13:00) 1.94 (08:50) 12.2 0 1.6 4.8 5.8
27-11-2017 12.6 (16:20) 2.1 (00:00) 7.4 8.06 (02:20) 5.83 (02:20) 0 0 0 0 0
26-11-2017 13.3 (15:10) 4.9 (00:00) 9.1 8.33 (10:20) 5.83 (10:40) 0 0 0 0 0
25-11-2017 14.7 (15:40) 7.7 (00:00) 11.2 5.83 (16:00) 3.61 (16:00) 0 0 0 0 0
24-11-2017 20.3 (14:40) 6.5 (00:00) 13.4 8.61 (14:50) 5 (15:00) 0 0 0 0 0
23-11-2017 19.5 (16:00) 7.6 (00:00) 13.5 6.39 (13:40) 3.61 (16:50) 0 0 0 0 0
22-11-2017 20.2 (15:50) 5 (00:00) 12.6 5.28 (07:20) 3.61 (07:30) 0 0 0 0 0
21-11-2017 20.2 (15:50) 5 (00:00) 12.6 3.89 (02:00) 3.33 (02:00) 0 0 0 0 0
20-11-2017 19.8 (14:40) 4.8 (00:00) 12.3 5.28 (06:50) 3.89 (06:20) 0 0 0 0 0
19-11-2017 18.5 (15:10) 4.1 (00:00) 11.3 4.44 (21:20) 3.33 (21:20) 0 0 0 0 0
18-11-2017 18.4 (15:30) 5.9 (00:00) 12.1 4.17 (05:50) 3.61 (05:50) 0 0 0 0 0
17-11-2017 19.5 (15:30) 4 (00:00) 11.8 4.72 (07:50) 3.61 (07:50) 0 0 0 0 0
16-11-2017 18.5 (16:00) 3.4 (00:00) 11 3.89 (14:40) 2.78 (01:50) 0 0 0 0 0
15-11-2017 15.8 (15:50) 1.6 (00:00) 8.7 5 (13:40) 3.61 (07:50) 0 0 0 0 0

Gráficas

Temp. máximas Temp. mínimas Temp. medias Precipitaciones Rachas de viento máximas Velocidades máximas media en intervalos de 10 minutos

Datos horarios

Fecha y hora oficial Temperatura (ºC) Velocidad del viento (km/h) Dirección del viento Racha (km/h) Dirección de racha Precipitación (mm) Presión (hPa) Tendencia (hPa) Humedad (%)
2017-12-14 23:00:00 -- -- -- -- -- -- -- -- --
2017-12-14 22:00:00 -- -- -- -- -- -- -- -- --
2017-12-14 21:00:00 -- -- -- -- -- -- -- -- --
2017-12-14 20:00:00 -- -- -- -- -- -- -- -- --
2017-12-14 19:00:00 -- -- -- -- -- -- -- -- --
2017-12-14 18:00:00 9.8 12 Sudoeste 24 Sudoeste 0.2 -- -- 99
2017-12-14 17:00:00 9.7 11 Oeste 22 Oeste 0.2 -- -- 99
2017-12-14 16:00:00 9.5 13 Oeste 25 Sudoeste 0 -- -- 98
2017-12-14 15:00:00 9.1 11 Sudoeste 22 Sudoeste 0 -- -- 97
2017-12-14 14:00:00 8.9 13 Sudoeste 22 Sudoeste 0 -- -- 97
2017-12-14 13:00:00 8.7 14 Oeste 28 Oeste 0 -- -- 96
2017-12-14 12:00:00 7.8 14 Oeste 24 Sudoeste 0 -- -- 98
2017-12-14 11:00:00 7 12 Sudoeste 25 Oeste 0 -- -- 99
2017-12-14 10:00:00 6.2 13 Oeste 22 Oeste 0 -- -- 98
2017-12-14 09:00:00 5.8 6 Sudoeste 17 Oeste 0 -- -- 96
2017-12-14 08:00:00 5.9 9 Oeste 23 Oeste 0 -- -- 92
2017-12-14 07:00:00 6 16 Oeste 23 Oeste 0 -- -- 89
2017-12-14 06:00:00 5.9 10 Oeste 17 Oeste 0 -- -- 87
2017-12-14 05:00:00 6 10 Oeste 19 Oeste 0 -- -- 84
2017-12-14 04:00:00 5.5 6 Sudoeste 12 Sudoeste 0 -- -- 86
2017-12-14 03:00:00 4.6 3 Oeste 5 Oeste 0 -- -- 86
2017-12-14 02:00:00 3.7 4 Oeste 5 Oeste 0 -- -- 89
2017-12-14 01:00:00 3.6 2 Noroeste 4 Oeste 0 -- -- 88
2017-12-14 00:00:00 4.6 0 Calma 5 Sur 0 -- -- 82
2017-12-13 23:00:00 5.1 2 Sur 4 Sur 0 -- -- 79
2017-12-13 22:00:00 4.7 0 Calma 3 Sur 0 -- -- 80
2017-12-13 21:00:00 3.8 0 Calma 9 Oeste 0 -- -- 81
2017-12-13 20:00:00 3.8 2 Norte 8 Oeste 0 -- -- 80
2017-12-13 19:00:00 4.7 0 Calma 10 Oeste 0 -- -- 78
2017-12-13 18:00:00 7.6 8 Oeste 17 Oeste 0 -- -- 63
2017-12-13 17:00:00 9.2 11 Oeste 21 Oeste 0 -- -- 57
2017-12-13 16:00:00 9.9 15 Oeste 24 Oeste 0 -- -- 49
2017-12-13 15:00:00 9.9 15 Oeste 24 Oeste 0 -- -- 49
2017-12-13 14:00:00 9.1 9 Oeste 18 Oeste 0 -- -- 56
2017-12-13 13:00:00 8.5 8 Sudoeste 14 Oeste 0 -- -- 58
2017-12-13 12:00:00 6.2 4 Oeste 8 Oeste 0 -- -- 69
2017-12-13 11:00:00 5.4 4 Oeste 7 Oeste 0 -- -- 75
2017-12-13 10:00:00 4.4 0 Calma 3 Sur 0 -- -- 73
2017-12-13 09:00:00 -0.4 0 Calma 4 Sudeste 0 -- -- 98
2017-12-13 08:00:00 -1.3 0 Calma 4 Oeste 0 -- -- 95
2017-12-13 07:00:00 -0.9 0 Calma -- -- 0 -- -- 95
2017-12-13 06:00:00 -0.7 0 Calma 4 Noroeste 0 -- -- 95
2017-12-13 05:00:00 -0.3 0 Calma 5 Nordeste 0 -- -- 92
2017-12-13 04:00:00 0.1 4 Nordeste 5 Nordeste 0 -- -- 92
2017-12-13 03:00:00 -0.1 2 Este 5 Nordeste 0 -- -- 91
2017-12-13 02:00:00 0.3 2 Nordeste 7 Nordeste 0 -- -- 91
2017-12-13 01:00:00 -0.3 0 Calma 2 Este 0 -- -- 93
2017-12-13 00:00:00 0.5 0 Calma 6 Nordeste 0 -- -- 91
2017-12-12 23:00:00 1.1 0 Calma 6 Nordeste 0 -- -- 89
2017-12-12 22:00:00 1.9 2 Norte 5 Norte 0 -- -- 86
2017-12-12 21:00:00 2.2 4 Noroeste 8 Noroeste 0 -- -- 85
2017-12-12 20:00:00 2.2 4 Noroeste 5 Noroeste 0 -- -- 87
2017-12-12 19:00:00 3.5 0 Calma 3 Nordeste 0 -- -- 80
2017-12-12 18:00:00 6.1 0 Calma 12 Oeste 0 -- -- 67
2017-12-12 17:00:00 7.9 7 Oeste 13 Sudoeste 0 -- -- 53
2017-12-12 16:00:00 8.5 6 Oeste 13 Oeste 0 -- -- 48
2017-12-12 15:00:00 8.4 5 Oeste 14 Oeste 0 -- -- 48
2017-12-12 14:00:00 8.3 3 Sudeste 10 Nordeste 0 -- -- 42
2017-12-12 13:00:00 7.4 4 Sudoeste 9 Oeste 0 -- -- 56
2017-12-12 12:00:00 6.4 4 Oeste 11 Norte 0 -- -- 55
2017-12-12 11:00:00 5.5 3 Noroeste 9 Nordeste 0 -- -- 58
2017-12-12 10:00:00 3.8 2 Oeste 7 Oeste 0 -- -- 74
2017-12-12 09:00:00 2 3 Noroeste 20 Norte 0 -- -- 74
2017-12-12 08:00:00 0.9 8 Norte 12 Norte 0 -- -- 75
2017-12-12 07:00:00 0.4 4 Norte 13 Norte 0 -- -- 82
2017-12-12 06:00:00 2 3 Nordeste 15 Norte 0 -- -- 71
2017-12-12 05:00:00 1.7 5 Norte 12 Norte 0 -- -- 74
2017-12-12 04:00:00 2.9 0 Calma 23 Norte 0 -- -- 78
2017-12-12 03:00:00 3.7 8 Noroeste 14 Norte 0 -- -- 89
2017-12-12 02:00:00 4.1 7 Norte 17 Norte 0 -- -- 88
2017-12-12 01:00:00 4.2 7 Norte 14 Nordeste 0.4 -- -- 91
2017-12-12 00:00:00 5.1 10 Oeste 21 Oeste 0.6 -- -- 95
2017-12-11 23:00:00 5.3 6 Oeste 22 Oeste 1 -- -- 97
2017-12-11 22:00:00 5.6 12 Sudoeste 27 Oeste 0 -- -- 94
2017-12-11 21:00:00 5.9 13 Oeste 27 Oeste 0.6 -- -- 93
2017-12-11 20:00:00 5.9 12 Sudoeste 31 Oeste 0 -- -- 90
2017-12-11 19:00:00 5.4 4 Sudoeste 24 Oeste 0.2 -- -- 92
2017-12-11 18:00:00 6.4 16 Oeste 35 Oeste 0 -- -- 78
2017-12-11 17:00:00 7 20 Oeste 41 Oeste 0 -- -- 73
2017-12-11 16:00:00 7.7 22 Oeste 40 Oeste 0 -- -- 71
2017-12-11 15:00:00 7.4 23 Oeste 43 Oeste 0 -- -- 75
2017-12-11 14:00:00 6.6 22 Oeste 42 Oeste 0 -- -- 82
2017-12-11 13:00:00 6.3 30 Oeste 45 Oeste 0 -- -- 83
2017-12-11 12:00:00 5.7 25 Oeste 40 Oeste 0 -- -- 88
2017-12-11 11:00:00 5.1 27 Oeste 44 Oeste 0.2 -- -- 91
2017-12-11 10:00:00 4.6 20 Oeste 34 Oeste 0 -- -- 97
2017-12-11 09:00:00 4.2 15 Sudoeste 31 Oeste 0.8 -- -- 97
2017-12-11 08:00:00 4.1 22 Oeste 42 Oeste 3.2 -- -- 96
2017-12-11 07:00:00 4.5 24 Oeste 53 Oeste 3.6 -- -- 96
2017-12-11 06:00:00 5.6 29 Oeste 68 Oeste 5.6 -- -- 94
2017-12-11 05:00:00 10.3 35 Sudoeste 63 Sudoeste 3.4 -- -- 95
2017-12-11 04:00:00 10.2 27 Sudoeste 66 Sur 2.4 -- -- 94
2017-12-11 03:00:00 10 26 Sudoeste 54 Sudoeste 3.8 -- -- 94
2017-12-11 02:00:00 10.2 22 Sudoeste 52 Sudoeste 1 -- -- 92
2017-12-11 01:00:00 10.3 22 Sudoeste 54 Sudoeste 0.2 -- -- 91
2017-12-11 00:00:00 9.8 21 Sudoeste 50 Sur 0 -- -- 94
2017-12-10 23:00:00 10.3 23 Sudoeste 49 Sudoeste 0 -- -- 87
2017-12-10 22:00:00 10.6 22 Sudoeste 45 Sudoeste 0 -- -- 85
2017-12-10 21:00:00 10.4 21 Sudoeste 39 Oeste 0 -- -- 86
2017-12-10 20:00:00 10.1 16 Sudoeste 37 Sudoeste 0 -- -- 89
2017-12-10 19:00:00 10 19 Sudoeste 48 Sudoeste 0 -- -- 92
2017-12-10 18:00:00 9.7 23 Sudoeste 37 Sudoeste 0.2 -- -- 96
2017-12-10 17:00:00 10 16 Sudoeste 41 Sudoeste 0 -- -- 93
2017-12-10 16:00:00 10.3 20 Sudoeste 37 Sudoeste 0 -- -- 90
2017-12-10 15:00:00 10.3 13 Sudoeste 34 Sudoeste 0 -- -- 88
2017-12-10 14:00:00 9.7 19 Sudoeste 39 Sudoeste 0 -- -- 91
2017-12-10 13:00:00 10.1 18 Sudoeste 34 Oeste 0 -- -- 87
2017-12-10 12:00:00 10.2 20 Sudoeste 35 Sudoeste 0 -- -- 84
2017-12-10 11:00:00 9.7 18 Sudoeste 36 Sudoeste 0 -- -- 89
2017-12-10 10:00:00 9.5 19 Sudoeste 30 Oeste 0 -- -- 91
2017-12-10 09:00:00 8.9 17 Oeste 28 Oeste 0 -- -- 93
2017-12-10 08:00:00 8.9 16 Sudoeste 30 Oeste 0 -- -- 96
2017-12-10 07:00:00 8.9 16 Oeste 31 Oeste 0 -- -- 93
2017-12-10 06:00:00 9.3 15 Oeste 26 Oeste 0 -- -- 95
2017-12-10 05:00:00 9.2 14 Oeste 31 Oeste 0 -- -- 98
2017-12-10 04:00:00 9.3 15 Oeste 25 Oeste 0 -- -- 98
2017-12-10 03:00:00 9.4 14 Oeste 35 Oeste 0 -- -- 97
2017-12-10 02:00:00 9 10 Oeste 18 Oeste 0 -- -- 98
2017-12-10 01:00:00 9 6 Oeste 14 Oeste 0 -- -- 96
2017-12-10 00:00:00 9.8 7 Oeste 20 Oeste 0 -- -- 94
2017-12-09 23:00:00 10.6 14 Oeste 23 Sudoeste 0 -- -- 91
2017-12-09 22:00:00 9.6 4 Sudoeste 10 Oeste 0 -- -- 94
2017-12-09 21:00:00 9.7 4 Sudoeste 8 Oeste 0 -- -- 93
2017-12-09 20:00:00 9.8 3 Sudoeste 4 Sur 0 -- -- 94
2017-12-09 19:00:00 10.1 0 Calma 4 Sur 0 -- -- 92
2017-12-09 18:00:00 11.1 5 Noroeste 16 Oeste 0 -- -- 89
2017-12-09 17:00:00 11.3 8 Oeste 20 Oeste 0 -- -- 89
2017-12-09 16:00:00 11 13 Oeste 22 Oeste 0 -- -- 90
2017-12-09 15:00:00 11.1 13 Oeste 21 Oeste 0 -- -- 89
2017-12-09 14:00:00 11.4 13 Oeste 21 Oeste 0 -- -- 88
2017-12-09 13:00:00 10.9 10 Oeste 20 Noroeste 0 -- -- 91
2017-12-09 12:00:00 10.1 9 Oeste 18 Oeste 0 -- -- 98
2017-12-09 11:00:00 9.9 9 Oeste 15 Oeste 0 -- -- 99
2017-12-09 10:00:00 9.6 10 Oeste 17 Oeste 0 -- -- 99
2017-12-09 09:00:00 9.3 9 Oeste 21 Oeste 0 -- -- 99
2017-12-09 08:00:00 9.3 10 Oeste 22 Oeste 0 -- -- 99
2017-12-09 07:00:00 9.4 15 Oeste 24 Oeste 0 -- -- 99
2017-12-09 06:00:00 9.5 11 Oeste 16 Oeste 0 -- -- 98
2017-12-09 05:00:00 9.4 10 Oeste 19 Oeste 0 -- -- 98
2017-12-09 04:00:00 8.9 7 Oeste 14 Oeste 0 -- -- 98
2017-12-09 03:00:00 9 7 Oeste 14 Oeste 0 -- -- 98
2017-12-09 02:00:00 9 10 Oeste 17 Oeste 0 -- -- 97
2017-12-09 01:00:00 8.8 9 Oeste 14 Oeste 0 -- -- 94
2017-12-09 00:00:00 7.7 6 Oeste 10 Oeste 0 -- -- 84
2017-12-08 23:00:00 6.3 0 Calma 5 Sudoeste 0 -- -- 76
2017-12-08 22:00:00 6.1 2 Noroeste 10 Oeste 0 -- -- 70
2017-12-08 21:00:00 6.1 3 Oeste 8 Oeste 0 -- -- 69
2017-12-08 20:00:00 7.1 4 Oeste 6 Oeste 0 -- -- 66
2017-12-08 19:00:00 8.7 0 Calma 21 Oeste 0 -- -- 62
2017-12-08 18:00:00 10.9 12 Oeste 22 Oeste 0 -- -- 55
2017-12-08 17:00:00 12.2 13 Oeste 26 Oeste 0 -- -- 53
2017-12-08 16:00:00 13.1 12 Oeste 25 Oeste 0 -- -- 50
2017-12-08 15:00:00 12.4 19 Oeste 28 Oeste 0 -- -- 47
2017-12-08 14:00:00 12.6 17 Oeste 24 Oeste 0 -- -- 43
2017-12-08 13:00:00 10.7 12 Oeste 19 Oeste 0 -- -- 50
2017-12-08 12:00:00 9.7 6 Sudoeste 16 Oeste 0 -- -- 51
2017-12-08 11:00:00 7.5 8 Oeste 12 Oeste 0 -- -- 57
2017-12-08 10:00:00 6.3 2 Oeste 5 Sudoeste 0 -- -- 58
2017-12-08 09:00:00 2 0 Calma 0 Calma 0 -- -- 80
2017-12-08 08:00:00 1.3 0 Calma 2 Sudoeste 0 -- -- 76
2017-12-08 07:00:00 1.6 0 Calma 3 Sudeste 0 -- -- 76
2017-12-08 06:00:00 2.6 0 Calma 2 Sudoeste 0 -- -- 74
2017-12-08 05:00:00 3.3 0 Calma 4 Oeste 0 -- -- 70
2017-12-08 04:00:00 2.9 0 Calma 4 Oeste 0 -- -- 71
2017-12-08 03:00:00 3.3 0 Calma 3 Sur 0 -- -- 74
2017-12-08 02:00:00 2.7 0 Calma 4 Noroeste 0 -- -- 76
2017-12-08 01:00:00 2.5 3 Noroeste 4 Noroeste 0 -- -- 75
2017-12-08 00:00:00 3.4 0 Calma 6 Norte 0 -- -- 70
2017-12-07 23:00:00 2.7 0 Calma 4 Nordeste 0 -- -- 72
2017-12-07 22:00:00 3.9 3 Sudeste 6 Noroeste 0 -- -- 64
2017-12-07 21:00:00 5 4 Noroeste 7 Noroeste 0 -- -- 62
2017-12-07 20:00:00 6.1 6 Noroeste 9 Noroeste 0 -- -- 51
2017-12-07 19:00:00 5.7 4 Noroeste 6 Norte 0 -- -- 53
2017-12-07 18:00:00 8.6 3 Noroeste 7 Noroeste 0 -- -- 43
2017-12-07 17:00:00 11.2 4 Oeste 10 Oeste 0 -- -- 35
2017-12-07 16:00:00 12 4 Oeste 10 Oeste 0 -- -- 35
2017-12-07 15:00:00 11.5 5 Oeste 9 Oeste 0 -- -- 38
2017-12-07 14:00:00 9.9 5 Oeste 10 Oeste 0 -- -- 54
2017-12-07 13:00:00 10.6 2 Oeste 9 Sur 0 -- -- 48
2017-12-07 12:00:00 8.2 5 Sudeste 10 Este 0 -- -- 53
2017-12-07 11:00:00 4.7 0 Calma 5 Sudeste 0 -- -- 71
2017-12-07 10:00:00 2.8 2 Sudeste 4 Este 0 -- -- 74
2017-12-07 09:00:00 -0.3 0 Calma 7 Este 0 -- -- 81
2017-12-07 08:00:00 -0.7 4 Este 9 Nordeste 0 -- -- 81
2017-12-07 07:00:00 0.6 7 Nordeste 12 Norte 0 -- -- 75
2017-12-07 06:00:00 0.6 5 Nordeste 8 Nordeste 0 -- -- 76
2017-12-07 05:00:00 -0.1 2 Nordeste 3 Nordeste 0 -- -- 79
2017-12-07 04:00:00 0.5 0 Calma 10 Nordeste 0 -- -- 74
2017-12-07 03:00:00 2.5 8 Nordeste 11 Nordeste 0 -- -- 66
2017-12-07 02:00:00 1.7 5 Nordeste 9 Nordeste 0 -- -- 70
2017-12-07 01:00:00 3 3 Norte 13 Nordeste 0 -- -- 63
2017-12-07 00:00:00 3.8 8 Nordeste 14 Nordeste 0 -- -- 61
2017-12-06 23:00:00 3.9 10 Nordeste 14 Nordeste 0 -- -- 61
2017-12-06 22:00:00 4.5 11 Nordeste 14 Nordeste 0 -- -- 57
2017-12-06 21:00:00 5.6 10 Nordeste 13 Nordeste 0 -- -- 53
2017-12-06 20:00:00 5.5 6 Nordeste 11 Nordeste 0 -- -- 55
2017-12-06 19:00:00 4.9 6 Nordeste 10 Nordeste 0 -- -- 55
2017-12-06 18:00:00 7.4 6 Nordeste 9 Nordeste 0 -- -- 50
2017-12-06 17:00:00 10.8 4 Este 9 Nordeste 0 -- -- 37
2017-12-06 16:00:00 11.5 6 Nordeste 20 Este 0 -- -- 36
2017-12-06 15:00:00 11.7 5 Sudeste 12 Sudeste 0 -- -- 37
2017-12-06 14:00:00 10.1 4 Nordeste 9 Nordeste 0 -- -- 39
2017-12-06 13:00:00 7.6 6 Nordeste 11 Nordeste 0 -- -- 52
2017-12-06 12:00:00 5.9 6 Nordeste 12 Nordeste 0 -- -- 58
2017-12-06 11:00:00 3.5 7 Nordeste 16 Nordeste 0 -- -- 64
2017-12-06 10:00:00 1.5 12 Nordeste 20 Nordeste 0 -- -- 68
2017-12-06 09:00:00 -0.3 5 Nordeste 17 Nordeste 0 -- -- 76
2017-12-06 08:00:00 -0.4 13 Nordeste 20 Nordeste 0 -- -- 76
2017-12-06 07:00:00 0.3 10 Nordeste 14 Nordeste 0 -- -- 75
2017-12-06 06:00:00 1 3 Este 15 Nordeste 0 -- -- 72
2017-12-06 05:00:00 0.4 3 Este 14 Nordeste 0 -- -- 74
2017-12-06 04:00:00 2.3 12 Nordeste 14 Nordeste 0 -- -- 65
2017-12-06 03:00:00 2.1 8 Norte 11 Nordeste 0 -- -- 67
2017-12-06 02:00:00 0.4 5 Nordeste 9 Nordeste 0 -- -- 75
2017-12-06 01:00:00 0.8 4 Norte 7 Norte 0 -- -- 74
2017-12-06 00:00:00 2 0 Calma 10 Este 0 -- -- 68
2017-12-05 23:00:00 4.1 0 Calma 19 Este 0 -- -- 59
2017-12-05 22:00:00 5.4 12 Este 17 Este 0 -- -- 53
2017-12-05 21:00:00 4.2 9 Este 15 Este 0 -- -- 57
2017-12-05 20:00:00 4 9 Este 14 Nordeste 0 -- -- 56
2017-12-05 19:00:00 5.3 7 Norte 10 Norte 0 -- -- 49
2017-12-05 18:00:00 6.7 6 Nordeste 12 Este 0 -- -- 42
2017-12-05 17:00:00 9.5 9 Nordeste 14 Nordeste 0 -- -- 35
2017-12-05 16:00:00 10.2 7 Nordeste 12 Nordeste 0 -- -- 34
2017-12-05 15:00:00 10.2 6 Sudeste 14 Nordeste 0 -- -- 38
2017-12-05 14:00:00 8.3 9 Nordeste 21 Este 0 -- -- 44
2017-12-05 13:00:00 6.7 16 Nordeste 27 Nordeste 0 -- -- 48
2017-12-05 12:00:00 4.9 16 Nordeste 28 Nordeste 0 -- -- 58
2017-12-05 11:00:00 2.9 17 Nordeste 25 Nordeste 0 -- -- 62
2017-12-05 10:00:00 1.5 11 Nordeste 26 Este 0 -- -- 68
2017-12-05 09:00:00 -0.1 8 Nordeste 28 Este 0 -- -- 74
2017-12-05 08:00:00 -0.2 17 Nordeste 26 Nordeste 0 -- -- 74
2017-12-05 07:00:00 -0.3 13 Nordeste 26 Este 0 -- -- 76
2017-12-05 06:00:00 -0.1 13 Nordeste 22 Este 0 -- -- 76
2017-12-05 05:00:00 -0.2 4 Nordeste 14 Este 0 -- -- 79
2017-12-05 04:00:00 -0.7 4 Este 12 Este 0 -- -- 84
2017-12-05 03:00:00 0.5 0 Calma 31 Nordeste 0 -- -- 78
2017-12-05 02:00:00 2.1 22 Nordeste 29 Nordeste 0 -- -- 72
2017-12-05 01:00:00 2.1 18 Nordeste 27 Nordeste 0 -- -- 70
2017-12-05 00:00:00 1.6 15 Nordeste 27 Nordeste 0 -- -- 74
2017-12-04 23:00:00 2.1 19 Nordeste 26 Este 0 -- -- 72
2017-12-04 22:00:00 2.4 17 Nordeste 21 Este 0 -- -- 70
2017-12-04 21:00:00 3.7 13 Este 21 Nordeste 0 -- -- 62
2017-12-04 20:00:00 4.3 14 Este 21 Este 0 -- -- 60
2017-12-04 19:00:00 4.4 9 Nordeste 17 Este 0 -- -- 62
2017-12-04 18:00:00 6.3 14 Este 24 Este 0 -- -- 54
2017-12-04 17:00:00 8.1 15 Este 26 Nordeste 0 -- -- 47
2017-12-04 16:00:00 8.7 13 Este 28 Este 0 -- -- 49
2017-12-04 15:00:00 8.3 16 Este 31 Nordeste 0 -- -- 50
2017-12-04 14:00:00 7.5 18 Nordeste 34 Este 0 -- -- 54
2017-12-04 13:00:00 6.9 18 Este 34 Nordeste 0 -- -- 58
2017-12-04 12:00:00 5.2 24 Este 39 Este 0 -- -- 61
2017-12-04 11:00:00 4.3 15 Nordeste 24 Este 0 -- -- 56
2017-12-04 10:00:00 2.6 8 Este 18 Nordeste 0 -- -- 55
2017-12-04 09:00:00 -0.2 13 Nordeste 19 Nordeste 0 -- -- 63
2017-12-04 08:00:00 -0.4 14 Nordeste 18 Nordeste 0 -- -- 61
2017-12-04 07:00:00 -0.2 10 Nordeste 15 Este 0 -- -- 61
2017-12-04 06:00:00 -0.2 10 Nordeste 13 Nordeste 0 -- -- 61
2017-12-04 05:00:00 0.2 13 Nordeste 16 Nordeste 0 -- -- 56
2017-12-04 04:00:00 -0.6 6 Nordeste 9 Este 0 -- -- 64
2017-12-04 03:00:00 -1.5 4 Nordeste 6 Nordeste 0 -- -- 72
2017-12-04 02:00:00 -0.3 5 Nordeste 8 Nordeste 0 -- -- 60
2017-12-04 01:00:00 -1.6 0 Calma 5 Norte 0 -- -- 70
2017-12-04 00:00:00 -0.5 5 Nordeste 10 Nordeste 0 -- -- 61
2017-12-03 23:00:00 -0.5 5 Nordeste 7 Nordeste 0 -- -- 60
2017-12-03 22:00:00 -0.3 4 Nordeste 7 Nordeste 0 -- -- 61
2017-12-03 21:00:00 -0.4 6 Este 9 Este 0 -- -- 64
2017-12-03 20:00:00 0.5 6 Este 12 Este 0 -- -- 61
2017-12-03 19:00:00 3.3 11 Este 13 Nordeste 0 -- -- 44
2017-12-03 18:00:00 5.2 9 Nordeste 12 Este 0 -- -- 33
2017-12-03 17:00:00 7.1 6 Este 14 Este 0 -- -- 28
2017-12-03 16:00:00 7.6 6 Nordeste 20 Este 0 -- -- 26
2017-12-03 15:00:00 7.7 9 Nordeste 26 Nordeste 0 -- -- 28
2017-12-03 14:00:00 7.4 17 Nordeste 29 Nordeste 0 -- -- 27
2017-12-03 13:00:00 5.8 8 Nordeste 20 Este 0 -- -- 44
2017-12-03 12:00:00 4.9 10 Nordeste 22 Nordeste 0 -- -- 48
2017-12-03 11:00:00 4 8 Nordeste 13 Nordeste 0 -- -- 52
2017-12-03 10:00:00 2.3 5 Nordeste 13 Norte 0 -- -- 63
2017-12-03 09:00:00 -0.4 3 Nordeste 13 Norte 0 -- -- 79
2017-12-03 08:00:00 -3.2 4 Nordeste 11 Norte 0 -- -- 89
2017-12-03 07:00:00 -1.9 9 Norte 12 Noroeste 0 -- -- 86
2017-12-03 06:00:00 -1.5 0 Calma 15 Norte 0 -- -- 82
2017-12-03 05:00:00 0.4 8 Norte 18 Norte 0 -- -- 74
2017-12-03 04:00:00 1.4 13 Norte 25 Norte 0 -- -- 69
2017-12-03 03:00:00 2 11 Norte 24 Norte 0 -- -- 67
2017-12-03 02:00:00 2.4 9 Norte 17 Norte 0 -- -- 66
2017-12-03 01:00:00 2.7 11 Norte 22 Norte 0 -- -- 64
2017-12-03 00:00:00 3.1 8 Norte 16 Norte 0 -- -- 60
2017-12-02 23:00:00 2.2 5 Norte 10 Norte 0 -- -- 63
2017-12-02 22:00:00 3 7 Norte 18 Norte 0 -- -- 60
2017-12-02 21:00:00 2.8 8 Norte 12 Norte 0 -- -- 61
2017-12-02 20:00:00 2.7 2 Este 22 Norte 0 -- -- 65
2017-12-02 19:00:00 4.9 13 Norte 24 Norte 0 -- -- 50
2017-12-02 18:00:00 5.6 15 Norte 29 Norte 0 -- -- 48
2017-12-02 17:00:00 6.9 14 Norte 32 Norte 0 -- -- 44
2017-12-02 16:00:00 7.9 12 Norte 31 Norte 0 -- -- 41
2017-12-02 15:00:00 7.9 19 Norte 32 Norte 0 -- -- 43
2017-12-02 14:00:00 7.7 14 Norte 27 Norte 0 -- -- 42
2017-12-02 13:00:00 5.6 7 Oeste 12 Oeste 0 -- -- 51
2017-12-02 12:00:00 4.2 3 Oeste 9 Sudoeste 0 -- -- 54
2017-12-02 11:00:00 2.9 3 Sudoeste 8 Sudoeste 0 -- -- 60
2017-12-02 10:00:00 0.9 4 Oeste 6 Oeste 0 -- -- 70
2017-12-02 09:00:00 -2.2 0 Calma 4 Nordeste 0 -- -- 89
2017-12-02 08:00:00 -3.2 0 Calma 5 Noroeste 0 -- -- 88
2017-12-02 07:00:00 -1.2 0 Calma 11 Nordeste 0 -- -- 78
2017-12-02 06:00:00 -1.2 8 Nordeste 13 Nordeste 0 -- -- 76
2017-12-02 05:00:00 -0.2 7 Norte 21 Norte 0 -- -- 69
2017-12-02 04:00:00 -0.9 8 Norte 14 Norte 0 -- -- 74
2017-12-02 03:00:00 -1.2 3 Nordeste 9 Noroeste 0 -- -- 74
2017-12-02 02:00:00 -1.3 3 Noroeste 14 Norte 0 -- -- 76
2017-12-02 01:00:00 1.3 8 Norte 15 Norte 0 -- -- 56
2017-12-02 00:00:00 1.6 9 Norte 16 Norte 0 -- -- 54
2017-12-01 23:00:00 1.9 3 Norte 15 Nordeste 0 -- -- 56
2017-12-01 22:00:00 3.2 2 Norte 25 Nordeste 0 -- -- 58
2017-12-01 21:00:00 4.7 12 Nordeste 29 Nordeste 0 -- -- 54
2017-12-01 20:00:00 5.2 14 Nordeste 32 Norte 0 -- -- 59
2017-12-01 19:00:00 5.6 19 Nordeste 33 Nordeste 0 -- -- 64
2017-12-01 18:00:00 6.7 8 Oeste 26 Oeste 0 -- -- 70
2017-12-01 17:00:00 6.9 18 Oeste 31 Oeste 0 -- -- 67
2017-12-01 16:00:00 7.3 18 Oeste 35 Oeste 0 -- -- 61
2017-12-01 15:00:00 7.7 19 Oeste 33 Oeste 0 -- -- 60
2017-12-01 14:00:00 7.5 23 Oeste 32 Oeste 0 -- -- 56
2017-12-01 13:00:00 7 18 Oeste 27 Oeste 0 -- -- 59
2017-12-01 12:00:00 5.3 11 Oeste 22 Oeste 0 -- -- 66
2017-12-01 11:00:00 3.1 11 Oeste 16 Oeste 0 -- -- 71
2017-12-01 10:00:00 1.8 6 Oeste 12 Oeste 0 -- -- 76
2017-12-01 09:00:00 -0.9 0 Calma 3 Oeste 0 -- -- 95
2017-12-01 08:00:00 -2.3 0 Calma 4 Noroeste 0 -- -- 90
2017-12-01 07:00:00 -1.6 3 Noroeste 6 Noroeste 0 -- -- 87
2017-12-01 06:00:00 -1.3 4 Noroeste 8 Noroeste 0 -- -- 86
2017-12-01 05:00:00 -1.5 5 Noroeste 8 Noroeste 0 -- -- 89
2017-12-01 04:00:00 -1.1 0 Calma 6 Nordeste 0 -- -- 88
2017-12-01 03:00:00 -1 2 Nordeste 4 Nordeste 0 -- -- 87
2017-12-01 02:00:00 -0.4 3 Nordeste 5 Norte 0 -- -- 85
2017-12-01 01:00:00 -0.3 4 Nordeste 6 Nordeste 0 -- -- 84
2017-12-01 00:00:00 0.6 4 Nordeste 10 Norte 0 -- -- 78
2017-11-30 23:00:00 3 8 Norte 14 Norte 0 -- -- 63
2017-11-30 22:00:00 3.3 10 Norte 13 Norte 0 -- -- 63
2017-11-30 21:00:00 4.2 8 Norte 17 Norte 0 -- -- 61
2017-11-30 20:00:00 4.6 9 Norte 19 Norte 0 -- -- 56
2017-11-30 19:00:00 5 13 Norte 19 Norte 0 -- -- 56
2017-11-30 18:00:00 6 10 Norte 26 Nordeste 0 -- -- 53
2017-11-30 17:00:00 7.5 14 Nordeste 27 Nordeste 0 -- -- 48
2017-11-30 16:00:00 8 16 Nordeste 28 Nordeste 0 -- -- 46
2017-11-30 15:00:00 8.1 19 Nordeste 32 Norte 0 -- -- 44
2017-11-30 14:00:00 7.8 20 Nordeste 37 Nordeste 0 -- -- 46
2017-11-30 13:00:00 7.1 25 Nordeste 47 Nordeste 0 -- -- 49
2017-11-30 12:00:00 6.2 26 Nordeste 42 Nordeste 0 -- -- 52
2017-11-30 11:00:00 5.1 28 Nordeste 43 Nordeste 0 -- -- 53
2017-11-30 10:00:00 3.8 22 Nordeste 34 Nordeste 0 -- -- 60
2017-11-30 09:00:00 2.7 18 Nordeste 44 Nordeste 0 -- -- 63
2017-11-30 08:00:00 2.7 22 Nordeste 37 Nordeste 0 -- -- 64
2017-11-30 07:00:00 2.2 15 Este 26 Este 0 -- -- 71
2017-11-30 06:00:00 2.5 14 Nordeste 37 Nordeste 0 -- -- 75
2017-11-30 05:00:00 3.9 21 Nordeste 35 Este 0 -- -- 69
2017-11-30 04:00:00 4.3 13 Este 27 Nordeste 0 -- -- 70
2017-11-30 03:00:00 4.7 16 Nordeste 26 Nordeste 0 -- -- 71
2017-11-30 02:00:00 4.9 17 Nordeste 28 Nordeste 0 -- -- 72
2017-11-30 01:00:00 5.2 15 Nordeste 27 Nordeste 0 -- -- 68
2017-11-30 00:00:00 5.4 15 Nordeste 23 Nordeste 0 -- -- 72
2017-11-29 23:00:00 5.7 12 Nordeste 22 Nordeste 0 -- -- 74
2017-11-29 22:00:00 6.8 13 Nordeste 25 Nordeste 0 -- -- 67
2017-11-29 21:00:00 7.6 10 Nordeste 17 Nordeste 0 -- -- 73
2017-11-29 20:00:00 7.9 7 Este 13 Este 0 -- -- 75
2017-11-29 19:00:00 8.3 11 Este 26 Este 0 -- -- 72
2017-11-29 18:00:00 8.8 14 Este 23 Este 0 -- -- 71
2017-11-29 17:00:00 10.3 13 Este 21 Este 0 -- -- 81
2017-11-29 16:00:00 10.8 10 Nordeste 21 Nordeste 0 -- -- 84
2017-11-29 15:00:00 11.6 8 Nordeste 17 Norte 0 -- -- 84
2017-11-29 14:00:00 11.2 5 Noroeste 16 Noroeste 0 -- -- 90
2017-11-29 13:00:00 11.1 9 Oeste 14 Oeste 0.4 -- -- 93
2017-11-29 12:00:00 11 4 Sudoeste 9 Oeste 0 -- -- 95
2017-11-29 11:00:00 10.6 3 Oeste 5 Oeste 0 -- -- 94
2017-11-29 10:00:00 9.9 0 Calma 3 Sur 0 -- -- 95
2017-11-29 09:00:00 9.6 2 Este 8 Nordeste 0.4 -- -- 97
2017-11-29 08:00:00 10 3 Este 7 Este 1 -- -- 98
2017-11-29 07:00:00 10 2 Nordeste 6 Nordeste 0.2 -- -- 98
2017-11-29 06:00:00 10.1 2 Nordeste 7 Este 2.2 -- -- 98
2017-11-29 05:00:00 10.2 4 Norte 7 Norte 2.4 -- -- 98
2017-11-29 04:00:00 10.4 2 Este 4 Este 0.8 -- -- 98
2017-11-29 03:00:00 10.4 4 Noroeste 8 Norte 0.6 -- -- 98
2017-11-29 02:00:00 10.3 5 Norte 11 Norte 0.6 -- -- 98
2017-11-29 01:00:00 10.4 3 Noroeste 9 Noroeste 0.8 -- -- 97
2017-11-29 00:00:00 10.5 4 Oeste 7 Noroeste 2.2 -- -- 96
2017-11-28 23:00:00 10.6 0 Calma 6 Sudoeste 1.2 -- -- 95
2017-11-28 22:00:00 10.7 3 Sudoeste 8 Sur 0.6 -- -- 95
2017-11-28 21:00:00 10.7 3 Sur 11 Sudeste 0.4 -- -- 95
2017-11-28 20:00:00 10.9 3 Sur 6 Sudeste 0.8 -- -- 95
2017-11-28 19:00:00 11 3 Sudeste 7 Sudeste 0.6 -- -- 95
2017-11-28 18:00:00 11.2 3 Sudeste 6 Sudeste 0 -- -- 95
2017-11-28 17:00:00 11.3 2 Sur 7 Sudoeste 0.8 -- -- 95
2017-11-28 16:00:00 11.3 2 Sudoeste 9 Sudoeste 0.6 -- -- 94
2017-11-28 15:00:00 11.2 4 Sudoeste 9 Sudoeste 1 -- -- 95
2017-11-28 14:00:00 10.9 6 Sudoeste 10 Sudoeste 1.4 -- -- 95
2017-11-28 13:00:00 10.8 5 Sudoeste 11 Sudoeste 1 -- -- 94
2017-11-28 12:00:00 10.7 3 Sudoeste 6 Sudoeste 0.6 -- -- 91
2017-11-28 11:00:00 10.5 2 Sudoeste 5 Oeste 0.2 -- -- 91
2017-11-28 10:00:00 9.9 2 Oeste 6 Noroeste 0.6 -- -- 90
2017-11-28 09:00:00 9.6 5 Noroeste 10 Oeste 0.2 -- -- 89
2017-11-28 08:00:00 9.7 6 Oeste 10 Noroeste 0 -- -- 83
2017-11-28 07:00:00 9.9 5 Oeste 9 Noroeste 0 -- -- 81
2017-11-28 06:00:00 9.6 0 Calma 5 Oeste 0 -- -- 81
2017-11-28 05:00:00 9.4 3 Oeste 6 Oeste 0 -- -- 80
2017-11-28 04:00:00 9.1 2 Oeste 4 Sudoeste 0 -- -- 78
2017-11-28 03:00:00 9.3 2 Oeste 5 Oeste 0 -- -- 73
2017-11-28 02:00:00 8.8 0 Calma 2 Sur 0 -- -- 67
2017-11-28 01:00:00 8.6 0 Calma 3 Este 0 -- -- 68
2017-11-28 00:00:00 8.2 0 Calma 0 Calma 0 -- -- 67
2017-11-27 23:00:00 8 0 Calma 5 Este 0 -- -- 66
2017-11-27 22:00:00 8.6 4 Nordeste 7 Nordeste 0 -- -- 60
2017-11-27 21:00:00 9.2 4 Este 9 Este 0 -- -- 57
2017-11-27 20:00:00 9.5 5 Nordeste 9 Nordeste 0 -- -- 56
2017-11-27 19:00:00 8.7 5 Nordeste 8 Nordeste 0 -- -- 58
2017-11-27 18:00:00 11.4 3 Este 9 Nordeste 0 -- -- 49
2017-11-27 17:00:00 12.2 5 Nordeste 8 Nordeste 0 -- -- 47
2017-11-27 16:00:00 12.3 5 Nordeste 10 Nordeste 0 -- -- 45
2017-11-27 15:00:00 11.9 8 Nordeste 12 Nordeste 0 -- -- 43
2017-11-27 14:00:00 11.5 5 Este 13 Este 0 -- -- 41
2017-11-27 13:00:00 10 9 Nordeste 13 Nordeste 0 -- -- 43
2017-11-27 12:00:00 8.5 8 Nordeste 15 Nordeste 0 -- -- 45
2017-11-27 11:00:00 6.9 10 Nordeste 16 Nordeste 0 -- -- 48
2017-11-27 10:00:00 4.5 5 Norte 20 Nordeste 0 -- -- 54
2017-11-27 09:00:00 3.9 6 Nordeste 22 Nordeste 0 -- -- 55
2017-11-27 08:00:00 3.8 5 Este 20 Este 0 -- -- 56
2017-11-27 07:00:00 4 9 Sudeste 20 Nordeste 0 -- -- 55
2017-11-27 06:00:00 4.4 17 Nordeste 24 Nordeste 0 -- -- 53
2017-11-27 05:00:00 3.4 9 Este 19 Nordeste 0 -- -- 57
2017-11-27 04:00:00 3.3 13 Nordeste 18 Nordeste 0 -- -- 55
2017-11-27 03:00:00 4.6 6 Nordeste 29 Nordeste 0 -- -- 51
2017-11-27 02:00:00 3.8 18 Nordeste 25 Este 0 -- -- 52
2017-11-27 01:00:00 4 14 Nordeste 19 Este 0 -- -- 49
2017-11-27 00:00:00 4.9 12 Nordeste 25 Este 0 -- -- 47
2017-11-26 23:00:00 6 15 Nordeste 21 Nordeste 0 -- -- 43
2017-11-26 22:00:00 7 13 Este 17 Este 0 -- -- 40
2017-11-26 21:00:00 7.9 14 Este 21 Este 0 -- -- 39
2017-11-26 20:00:00 6.9 14 Nordeste 17 Este 0 -- -- 40
2017-11-26 19:00:00 8.2 6 Nordeste 12 Este 0 -- -- 38
2017-11-26 18:00:00 10.6 7 Este 16 Nordeste 0 -- -- 34
2017-11-26 17:00:00 12.4 11 Nordeste 21 Nordeste 0 -- -- 31
2017-11-26 16:00:00 13.1 13 Nordeste 24 Este 0 -- -- 29
2017-11-26 15:00:00 13.1 14 Nordeste 28 Este 0 -- -- 33
2017-11-26 14:00:00 12.2 12 Nordeste 22 Nordeste 0 -- -- 37
2017-11-26 13:00:00 10.9 13 Este 23 Este 0 -- -- 42
2017-11-26 12:00:00 9.9 12 Este 25 Este 0 -- -- 45
2017-11-26 11:00:00 8.3 15 Este 30 Este 0 -- -- 54
2017-11-26 10:00:00 7.7 17 Este 28 Este 0 -- -- 59
2017-11-26 09:00:00 5.8 15 Este 22 Nordeste 0 -- -- 68
2017-11-26 08:00:00 5.9 13 Este 25 Este 0 -- -- 70
2017-11-26 07:00:00 5.9 15 Nordeste 20 Nordeste 0 -- -- 73
2017-11-26 06:00:00 6.3 13 Nordeste 23 Este 0 -- -- 77
2017-11-26 05:00:00 7.1 14 Este 22 Nordeste 0 -- -- 80
2017-11-26 04:00:00 7.9 13 Este 21 Este 0 -- -- 79
2017-11-26 03:00:00 6.3 6 Nordeste 8 Este 0 -- -- 84
2017-11-26 02:00:00 6.9 0 Calma 8 Nordeste 0 -- -- 82
2017-11-26 01:00:00 7.6 3 Nordeste 9 Nordeste 0 -- -- 80
2017-11-26 00:00:00 8.6 5 Nordeste 8 Nordeste 0 -- -- 82
2017-11-25 23:00:00 9.8 3 Norte 5 Nordeste 0 -- -- 75
2017-11-25 22:00:00 10.4 2 Nordeste 5 Noroeste 0 -- -- 73
2017-11-25 21:00:00 10.9 4 Noroeste 7 Oeste 0 -- -- 70
2017-11-25 20:00:00 10.9 4 Noroeste 6 Noroeste 0 -- -- 66
2017-11-25 19:00:00 11.1 2 Noroeste 4 Sudoeste 0 -- -- 62
2017-11-25 18:00:00 12.4 0 Calma 9 Oeste 0 -- -- 55
2017-11-25 17:00:00 14.2 7 Oeste 21 Oeste 0 -- -- 49
2017-11-25 16:00:00 14.6 13 Oeste 21 Oeste 0 -- -- 46
2017-11-25 15:00:00 14.5 12 Oeste 19 Sudoeste 0 -- -- 43
2017-11-25 14:00:00 13.8 6 Sudoeste 12 Oeste 0 -- -- 49
2017-11-25 13:00:00 13.6 3 Oeste 8 Sudoeste 0 -- -- 46
2017-11-25 12:00:00 13.2 2 Oeste 11 Noroeste 0 -- -- 46
2017-11-25 11:00:00 13 5 Noroeste 9 Noroeste 0 -- -- 43
2017-11-25 10:00:00 11.9 0 Calma 12 Sur 0 -- -- 48
2017-11-25 09:00:00 10.7 0 Calma 5 Sudeste 0 -- -- 51
2017-11-25 08:00:00 9.6 2 Sudeste 5 Sudeste 0 -- -- 53
2017-11-25 07:00:00 9.2 0 Calma 4 Sur 0 -- -- 55
2017-11-25 06:00:00 8.4 0 Calma 4 Este 0 -- -- 57
2017-11-25 05:00:00 8.1 3 Nordeste 4 Este 0 -- -- 57
2017-11-25 04:00:00 8 0 Calma 3 Nordeste 0 -- -- 59
2017-11-25 03:00:00 8.5 4 Nordeste 5 Nordeste 0 -- -- 57
2017-11-25 02:00:00 8.2 2 Este 3 Este 0 -- -- 60
2017-11-25 01:00:00 8.9 0 Calma 6 Sudoeste 0 -- -- 58
2017-11-25 00:00:00 10.8 2 Sudoeste 8 Sudoeste 0 -- -- 50
2017-11-24 23:00:00 10.6 3 Sudeste 6 Sudeste 0 -- -- 50
2017-11-24 22:00:00 10.6 3 Sudeste 5 Sudeste 0 -- -- 50
2017-11-24 21:00:00 10.8 3 Sur 6 Sur 0 -- -- 48
2017-11-24 20:00:00 12.6 2 Sur 6 Sur 0 -- -- 43
2017-11-24 19:00:00 13.9 5 Sur 9 Sur 0 -- -- 39
2017-11-24 18:00:00 16.7 5 Sudoeste 22 Sudoeste 0 -- -- 32
2017-11-24 17:00:00 19.4 13 Sudoeste 23 Oeste 0 -- -- 26
2017-11-24 16:00:00 19.1 17 Oeste 27 Sudoeste 0 -- -- 26
2017-11-24 15:00:00 20 18 Sudoeste 31 Oeste 0 -- -- 25
2017-11-24 14:00:00 19.9 10 Sudoeste 22 Oeste 0 -- -- 29
2017-11-24 13:00:00 18.1 9 Sudoeste 18 Oeste 0 -- -- 33
2017-11-24 12:00:00 17.5 6 Sudoeste 17 Sudoeste 0 -- -- 33
2017-11-24 11:00:00 15.9 6 Sudoeste 10 Sudoeste 0 -- -- 36
2017-11-24 10:00:00 12.5 0 Calma 4 Sudeste 0 -- -- 44
2017-11-24 09:00:00 7.7 2 Sudeste 4 Oeste 0 -- -- 61
2017-11-24 08:00:00 7.3 0 Calma 6 Sur 0 -- -- 58
2017-11-24 07:00:00 6.5 2 Sudeste 3 Sur 0 -- -- 63
2017-11-24 06:00:00 7.7 2 Nordeste 5 Norte 0 -- -- 58
2017-11-24 05:00:00 8 2 Oeste 6 Oeste 0 -- -- 55
2017-11-24 04:00:00 9.9 3 Sudoeste 7 Sudoeste 0 -- -- 49
2017-11-24 03:00:00 11.9 3 Sudeste 8 Sur 0 -- -- 43
2017-11-24 02:00:00 12.2 4 Sur 8 Sur 0 -- -- 42
2017-11-24 01:00:00 12 4 Sudeste 6 Sudeste 0 -- -- 47
2017-11-24 00:00:00 12.4 0 Calma 6 Sudoeste 0 -- -- 41
2017-11-23 23:00:00 12.9 5 Sur 8 Sur 0 -- -- 39
2017-11-23 22:00:00 12.6 3 Sur 5 Sudeste 0 -- -- 39
2017-11-23 21:00:00 12.6 4 Sudoeste 7 Sur 0 -- -- 39
2017-11-23 20:00:00 12.7 2 Sudeste 5 Sur 0 -- -- 38
2017-11-23 19:00:00 14 3 Sur 8 Sur 0 -- -- 36
2017-11-23 18:00:00 17.3 5 Sur 18 Sudoeste 0 -- -- 30
2017-11-23 17:00:00 19 12 Sudoeste 22 Oeste 0 -- -- 27
2017-11-23 16:00:00 19.5 9 Sudoeste 18 Sudoeste 0 -- -- 26
2017-11-23 15:00:00 19.1 8 Sudoeste 22 Sudoeste 0 -- -- 27
2017-11-23 14:00:00 19.1 10 Sudoeste 23 Oeste 0 -- -- 26
2017-11-23 13:00:00 18.3 9 Sudoeste 15 Sudoeste 0 -- -- 30
2017-11-23 12:00:00 17.2 6 Sudoeste 14 Oeste 0 -- -- 33
2017-11-23 11:00:00 15.2 3 Sudoeste 8 Sudoeste 0 -- -- 37
2017-11-23 10:00:00 11 0 Calma 3 Sur 0 -- -- 57
2017-11-23 09:00:00 9.9 2 Este 3 Sudoeste 0 -- -- 51
2017-11-23 08:00:00 9.4 0 Calma 4 Oeste 0 -- -- 53
2017-11-23 07:00:00 9.1 2 Nordeste 4 Sur 0 -- -- 53
2017-11-23 06:00:00 7.8 0 Calma 5 Sur 0 -- -- 55
2017-11-23 05:00:00 7.6 4 Sur 5 Sudeste 0 -- -- 52
2017-11-23 04:00:00 8.7 4 Sudeste 5 Sur 0 -- -- 44
2017-11-23 03:00:00 8.2 2 Sudeste 4 Sudeste 0 -- -- 43
2017-11-23 02:00:00 8.3 0 Calma 4 Sudeste 0 -- -- 46
2017-11-23 01:00:00 9.6 0 Calma 13 Sur 0 -- -- 41
2017-11-23 00:00:00 9.4 2 Sudeste 6 Sudeste 0 -- -- 39
2017-11-22 23:00:00 9.6 3 Sudeste 6 Sudeste 0 -- -- 39
2017-11-22 22:00:00 9.3 3 Sudeste 7 Sur 0 -- -- 43
2017-11-22 21:00:00 9.1 3 Este 5 Sudeste 0 -- -- 46
2017-11-22 20:00:00 9.9 0 Calma 9 Sur 0 -- -- 44
2017-11-22 19:00:00 13.4 3 Norte 10 Noroeste 0 -- -- 32
2017-11-22 18:00:00 16.5 6 Noroeste 15 Oeste 0 -- -- 29
2017-11-22 17:00:00 19.4 4 Sudoeste 10 Sudoeste 0 -- -- 25
2017-11-22 16:00:00 19.8 6 Sudeste 15 Sur 0 -- -- 23
2017-11-22 15:00:00 20.1 7 Sur 13 Sudoeste 0 -- -- 21
2017-11-22 14:00:00 19.4 5 Sudoeste 15 Oeste 0 -- -- 23
2017-11-22 13:00:00 17.8 3 Sudoeste 8 Oeste 0 -- -- 30
2017-11-22 12:00:00 15.9 3 Sudoeste 9 Sudeste 0 -- -- 32
2017-11-22 11:00:00 12.9 3 Sudeste 7 Este 0 -- -- 42
2017-11-22 10:00:00 8.8 2 Oeste 8 Nordeste 0 -- -- 53
2017-11-22 09:00:00 6.5 0 Calma 14 Nordeste 0 -- -- 56
2017-11-22 08:00:00 6.2 2 Este 19 Nordeste 0 -- -- 55
2017-11-22 07:00:00 7.2 11 Nordeste 14 Nordeste 0 -- -- 51
2017-11-22 06:00:00 7.1 7 Nordeste 12 Nordeste 0 -- -- 52
2017-11-22 05:00:00 5.2 4 Nordeste 8 Nordeste 0 -- -- 60
2017-11-22 04:00:00 7.2 3 Norte 13 Nordeste 0 -- -- 51
2017-11-22 03:00:00 8.5 8 Nordeste 14 Noroeste 0 -- -- 47
2017-11-22 02:00:00 8.9 5 Norte 10 Norte 0 -- -- 45
2017-11-22 01:00:00 9.6 7 Nordeste 10 Nordeste 0 -- -- 45
2017-11-22 00:00:00 9 4 Nordeste 8 Nordeste 0 -- -- 46
2017-11-21 23:00:00 8.9 4 Nordeste 6 Nordeste 0 -- -- 46
2017-11-21 22:00:00 9.6 6 Nordeste 9 Nordeste 0 -- -- 45
2017-11-21 21:00:00 10.7 5 Este 9 Nordeste 0 -- -- 40
2017-11-21 20:00:00 12 8 Nordeste 9 Nordeste 0 -- -- 38
2017-11-21 19:00:00 13 6 Norte 9 Norte 0 -- -- 38
2017-11-21 18:00:00 16.2 4 Norte 9 Noroeste 0 -- -- 33
2017-11-21 17:00:00 19.2 5 Noroeste 13 Oeste 0 -- -- 25
2017-11-21 16:00:00 20.1 4 Noroeste 12 Oeste 0 -- -- 23
2017-11-21 15:00:00 19.7 4 Noroeste 12 Oeste 0 -- -- 25
2017-11-21 14:00:00 19.2 4 Oeste 10 Oeste 0 -- -- 26
2017-11-21 13:00:00 18.3 3 Sudoeste 9 Sur 0 -- -- 30
2017-11-21 12:00:00 15.8 5 Sudeste 9 Sudeste 0 -- -- 34
2017-11-21 11:00:00 13.3 5 Sudeste 12 Nordeste 0 -- -- 40
2017-11-21 10:00:00 10.3 8 Nordeste 12 Nordeste 0 -- -- 46
2017-11-21 09:00:00 6.4 0 Calma 7 Norte 0 -- -- 61
2017-11-21 08:00:00 6.1 4 Nordeste 11 Nordeste 0 -- -- 57
2017-11-21 07:00:00 6.7 7 Nordeste 12 Nordeste 0 -- -- 54
2017-11-21 06:00:00 5.1 3 Nordeste 8 Nordeste 0 -- -- 62
2017-11-21 05:00:00 7.7 5 Este 13 Nordeste 0 -- -- 52
2017-11-21 04:00:00 6.4 6 Nordeste 10 Norte 0 -- -- 57
2017-11-21 03:00:00 8.1 3 Norte 13 Nordeste 0 -- -- 49
2017-11-21 02:00:00 9.7 12 Nordeste 14 Nordeste 0 -- -- 45
2017-11-21 01:00:00 9.8 6 Nordeste 12 Nordeste 0 -- -- 45
2017-11-21 00:00:00 8.9 5 Nordeste 6 Nordeste 0 -- -- 48
2017-11-20 23:00:00 9.5 5 Nordeste 6 Nordeste 0 -- -- 47
2017-11-20 22:00:00 9.9 4 Nordeste 9 Nordeste 0 -- -- 46
2017-11-20 21:00:00 10.7 8 Nordeste 11 Nordeste 0 -- -- 42
2017-11-20 20:00:00 12.2 8 Nordeste 10 Nordeste 0 -- -- 37
2017-11-20 19:00:00 12.9 8 Nordeste 10 Nordeste 0 -- -- 36
2017-11-20 18:00:00 15.5 6 Nordeste 8 Nordeste 0 -- -- 32
2017-11-20 17:00:00 18.8 3 Oeste 9 Noroeste 0 -- -- 24
2017-11-20 16:00:00 19.3 6 Oeste 12 Oeste 0 -- -- 24
2017-11-20 15:00:00 19.6 6 Oeste 12 Oeste 0 -- -- 25
2017-11-20 14:00:00 19 4 Sudoeste 10 Sudeste 0 -- -- 27
2017-11-20 13:00:00 17.2 6 Sudeste 12 Nordeste 0 -- -- 32
2017-11-20 12:00:00 13.5 9 Nordeste 15 Nordeste 0 -- -- 46
2017-11-20 11:00:00 10.7 10 Nordeste 15 Norte 0 -- -- 53
2017-11-20 10:00:00 10.1 4 Nordeste 12 Norte 0 -- -- 55
2017-11-20 09:00:00 6.4 7 Norte 13 Norte 0 -- -- 65
2017-11-20 08:00:00 6.2 9 Norte 16 Norte 0 -- -- 66
2017-11-20 07:00:00 6.6 12 Nordeste 19 Nordeste 0 -- -- 65
2017-11-20 06:00:00 5.9 6 Nordeste 12 Nordeste 0 -- -- 69
2017-11-20 05:00:00 7.6 9 Nordeste 13 Nordeste 0 -- -- 63
2017-11-20 04:00:00 7.8 7 Norte 12 Nordeste 0 -- -- 63
2017-11-20 03:00:00 6.5 4 Nordeste 12 Nordeste 0 -- -- 67
2017-11-20 02:00:00 7.9 6 Nordeste 9 Nordeste 0 -- -- 61
2017-11-20 01:00:00 7.9 3 Nordeste 7 Nordeste 0 -- -- 62
2017-11-20 00:00:00 7.3 2 Nordeste 5 Nordeste 0 -- -- 65
2017-11-19 23:00:00 8.3 2 Norte 6 Norte 0 -- -- 60
2017-11-19 22:00:00 11.3 3 Sudeste 16 Nordeste 0 -- -- 47
2017-11-19 21:00:00 11.3 11 Este 14 Nordeste 0 -- -- 44
2017-11-19 20:00:00 11.4 9 Nordeste 12 Nordeste 0 -- -- 44
2017-11-19 19:00:00 12.2 9 Nordeste 11 Norte 0 -- -- 43
2017-11-19 18:00:00 14.6 5 Nordeste 9 Nordeste 0 -- -- 37
2017-11-19 17:00:00 17.5 7 Nordeste 12 Este 0 -- -- 30
2017-11-19 16:00:00 18.1 8 Nordeste 13 Nordeste 0 -- -- 30
2017-11-19 15:00:00 18.1 6 Este 13 Este 0 -- -- 30
2017-11-19 14:00:00 17 9 Sudeste 15 Este 0 -- -- 33
2017-11-19 13:00:00 15.3 5 Este 14 Este 0 -- -- 42
2017-11-19 12:00:00 13 7 Nordeste 15 Nordeste 0 -- -- 48
2017-11-19 11:00:00 9.6 10 Nordeste 15 Nordeste 0 -- -- 56
2017-11-19 10:00:00 7.6 5 Nordeste 14 Nordeste 0 -- -- 60
2017-11-19 09:00:00 4.9 8 Norte 13 Noroeste 0 -- -- 65
2017-11-19 08:00:00 4.2 3 Norte 10 Norte 0 -- -- 68
2017-11-19 07:00:00 5.2 5 Noroeste 10 Noroeste 0 -- -- 65
2017-11-19 06:00:00 6 0 Calma 10 Nordeste 0 -- -- 62
2017-11-19 05:00:00 6.4 0 Calma 12 Nordeste 0 -- -- 60
2017-11-19 04:00:00 6.6 4 Este 11 Este 0 -- -- 58
2017-11-19 03:00:00 6.7 0 Calma 8 Norte 0 -- -- 57
2017-11-19 02:00:00 7.7 3 Norte 8 Este 0 -- -- 54
2017-11-19 01:00:00 7.9 3 Nordeste 7 Este 0 -- -- 54
2017-11-19 00:00:00 8.9 4 Norte 9 Norte 0 -- -- 51
2017-11-18 23:00:00 9.1 3 Norte 7 Norte 0 -- -- 51
2017-11-18 22:00:00 9.6 3 Norte 8 Norte 0 -- -- 48
2017-11-18 21:00:00 10.9 4 Nordeste 9 Nordeste 0 -- -- 43
2017-11-18 20:00:00 11.5 8 Nordeste 9 Nordeste 0 -- -- 42
2017-11-18 19:00:00 12.1 5 Este 9 Este 0 -- -- 43
2017-11-18 18:00:00 15.6 7 Este 9 Este 0 -- -- 37
2017-11-18 17:00:00 17.8 5 Nordeste 10 Este 0 -- -- 31
2017-11-18 16:00:00 18.3 6 Nordeste 13 Nordeste 0 -- -- 31
2017-11-18 15:00:00 18.1 6 Nordeste 14 Nordeste 0 -- -- 29
2017-11-18 14:00:00 17.5 6 Nordeste 12 Nordeste 0 -- -- 32
2017-11-18 13:00:00 16.3 8 Nordeste 13 Nordeste 0 -- -- 36
2017-11-18 12:00:00 15 5 Nordeste 12 Sudeste 0 -- -- 40
2017-11-18 11:00:00 12.2 7 Sudeste 13 Nordeste 0 -- -- 45
2017-11-18 10:00:00 9.5 9 Nordeste 12 Nordeste 0 -- -- 52
2017-11-18 09:00:00 7.6 3 Este 14 Nordeste 0 -- -- 58
2017-11-18 08:00:00 7.7 12 Nordeste 14 Nordeste 0 -- -- 55
2017-11-18 07:00:00 6.4 5 Este 14 Nordeste 0 -- -- 60
2017-11-18 06:00:00 7.7 7 Nordeste 15 Nordeste 0 -- -- 55
2017-11-18 05:00:00 6 5 Nordeste 8 Norte 0 -- -- 63
2017-11-18 04:00:00 6.8 6 Nordeste 7 Nordeste 0 -- -- 58
2017-11-18 03:00:00 6.8 4 Nordeste 8 Nordeste 0 -- -- 58
2017-11-18 02:00:00 8.9 3 Norte 10 Norte 0 -- -- 50
2017-11-18 01:00:00 9.6 4 Nordeste 9 Nordeste 0 -- -- 47
2017-11-18 00:00:00 9.3 6 Nordeste 9 Nordeste 0 -- -- 49
2017-11-17 23:00:00 9.8 7 Nordeste 10 Nordeste 0 -- -- 47
2017-11-17 22:00:00 11.1 9 Nordeste 11 Nordeste 0 -- -- 42
2017-11-17 21:00:00 12.6 9 Nordeste 12 Nordeste 0 -- -- 38
2017-11-17 20:00:00 12.7 6 Nordeste 12 Nordeste 0 -- -- 39
2017-11-17 19:00:00 12.7 6 Nordeste 8 Nordeste 0 -- -- 42
2017-11-17 18:00:00 16.7 4 Este 9 Este 0 -- -- 35
2017-11-17 17:00:00 18.9 3 Nordeste 11 Nordeste 0 -- -- 29
2017-11-17 16:00:00 19.4 5 Nordeste 15 Nordeste 0 -- -- 28
2017-11-17 15:00:00 19.2 9 Nordeste 17 Este 0 -- -- 28
2017-11-17 14:00:00 18.4 6 Nordeste 14 Nordeste 0 -- -- 28
2017-11-17 13:00:00 17.1 9 Nordeste 13 Nordeste 0 -- -- 29
2017-11-17 12:00:00 15.5 9 Nordeste 13 Nordeste 0 -- -- 33
2017-11-17 11:00:00 12.1 3 Oeste 5 Oeste 0 -- -- 47
2017-11-17 10:00:00 10.7 3 Sudeste 5 Sur 0 -- -- 49
2017-11-17 09:00:00 7 3 Noroeste 11 Nordeste 0 -- -- 57
2017-11-17 08:00:00 7.6 12 Nordeste 17 Norte 0 -- -- 50
2017-11-17 07:00:00 4 0 Calma 5 Nordeste 0 -- -- 66
2017-11-17 06:00:00 5.8 5 Nordeste 8 Nordeste 0 -- -- 58
2017-11-17 05:00:00 5.4 4 Nordeste 6 Nordeste 0 -- -- 60
2017-11-17 04:00:00 5.9 0 Calma 9 Norte 0 -- -- 60
2017-11-17 03:00:00 8.4 9 Nordeste 12 Nordeste 0 -- -- 51
2017-11-17 02:00:00 7.4 9 Nordeste 10 Nordeste 0 -- -- 57
2017-11-17 01:00:00 7.1 5 Nordeste 6 Nordeste 0 -- -- 64
2017-11-17 00:00:00 8 3 Nordeste 6 Nordeste 0 -- -- 58
2017-11-16 23:00:00 8.7 3 Norte 6 Nordeste 0 -- -- 50
2017-11-16 22:00:00 8.5 3 Nordeste 5 Nordeste 0 -- -- 51
2017-11-16 21:00:00 9.4 3 Nordeste 6 Nordeste 0 -- -- 45
2017-11-16 20:00:00 10.1 3 Nordeste 6 Nordeste 0 -- -- 45
2017-11-16 19:00:00 11.4 4 Nordeste 6 Nordeste 0 -- -- 43
2017-11-16 18:00:00 15.9 0 Calma 7 Oeste 0 -- -- 35
2017-11-16 17:00:00 17.9 3 Sur 9 Sur 0 -- -- 30
2017-11-16 16:00:00 18.5 5 Sudeste 14 Sudeste 0 -- -- 27
2017-11-16 15:00:00 18.1 4 Sudoeste 14 Oeste 0 -- -- 29
2017-11-16 14:00:00 17.6 4 Sudoeste 11 Oeste 0 -- -- 31
2017-11-16 13:00:00 16.7 5 Sudoeste 11 Este 0 -- -- 30
2017-11-16 12:00:00 14.5 3 Este 8 Sudeste 0 -- -- 35
2017-11-16 11:00:00 12 4 Sudeste 8 Sudeste 0 -- -- 40
2017-11-16 10:00:00 8.9 4 Oeste 6 Este 0 -- -- 49
2017-11-16 09:00:00 6.2 2 Oeste 10 Nordeste 0 -- -- 55
2017-11-16 08:00:00 3.7 4 Nordeste 11 Nordeste 0 -- -- 61
2017-11-16 07:00:00 5.4 8 Nordeste 10 Norte 0 -- -- 51
2017-11-16 06:00:00 3.6 3 Nordeste 8 Nordeste 0 -- -- 64
2017-11-16 05:00:00 4 3 Nordeste 5 Nordeste 0 -- -- 63
2017-11-16 04:00:00 5.3 2 Nordeste 10 Norte 0 -- -- 59
2017-11-16 03:00:00 5.8 5 Nordeste 8 Norte 0 -- -- 57
2017-11-16 02:00:00 8 4 Nordeste 12 Nordeste 0 -- -- 49
2017-11-16 01:00:00 5.6 3 Nordeste 6 Nordeste 0 -- -- 63
2017-11-16 00:00:00 5.9 3 Nordeste 5 Nordeste 0 -- -- 63
2017-11-15 23:00:00 6.5 2 Nordeste 4 Nordeste 0 -- -- 58
2017-11-15 22:00:00 8.2 2 Nordeste 7 Nordeste 0 -- -- 51
2017-11-15 21:00:00 8.8 4 Nordeste 5 Nordeste 0 -- -- 47
2017-11-15 20:00:00 8.9 3 Norte 4 Nordeste 0 -- -- 47
2017-11-15 19:00:00 9.7 3 Norte 5 Nordeste 0 -- -- 44
2017-11-15 18:00:00 14.4 2 Noroeste 8 Oeste 0 -- -- 34
2017-11-15 17:00:00 15.3 4 Oeste 14 Oeste 0 -- -- 27
2017-11-15 16:00:00 15.8 5 Oeste 15 Noroeste 0 -- -- 26
2017-11-15 15:00:00 15.3 6 Oeste 14 Oeste 0 -- -- 27
2017-11-15 14:00:00 14.5 9 Oeste 18 Oeste 0 -- -- 27
2017-11-15 13:00:00 13.7 6 Sudoeste 12 Oeste 0 -- -- 29
2017-11-15 12:00:00 12.2 4 Oeste 9 Oeste 0 -- -- 30
2017-11-15 11:00:00 9.9 6 Sudeste 10 Sudeste 0 -- -- 37
2017-11-15 10:00:00 7.5 4 Sudeste 8 Nordeste 0 -- -- 43
2017-11-15 09:00:00 4.7 5 Nordeste 13 Nordeste 0 -- -- 45
2017-11-15 08:00:00 3.4 12 Nordeste 17 Nordeste 0 -- -- 49
2017-11-15 07:00:00 1.6 0 Calma 8 Nordeste 0 -- -- 56
2017-11-15 06:00:00 2.1 3 Nordeste 5 Nordeste 0 -- -- 57
2017-11-15 05:00:00 4.1 0 Calma 11 Nordeste 0 -- -- 47
2017-11-15 04:00:00 4 4 Nordeste 12 Este 0 -- -- 47
2017-11-15 03:00:00 3.9 5 Nordeste 12 Nordeste 0 -- -- 47
2017-11-15 02:00:00 4.2 5 Nordeste 12 Nordeste 0 -- -- 45
2017-11-15 01:00:00 5 7 Nordeste 12 Nordeste 0 -- -- 42
2017-11-15 00:00:00 4.8 5 Nordeste 8 Nordeste 0 -- -- 47